Time;durP1;ratioP1;P1;durP2;ratioP2;P2;SDS_P1;SDS_P2;PMS_P1;PMS_P2;Temp;Humidity;BMP_temperature;BMP_pressure;BME280_temperature;BME280_humidity;BME280_pressure;Samples;Min_cycle;Max_cycle;Signal;HPM_P1;HPM_P2
2024/03/02 00:00:25;;;;;;;2.53;2.20;;;;;;;21.19;28.54;99271.41;4480912;28;20109;-48
2024/03/02 00:02:42;;;;;;;2.78;1.90;;;;;;;21.18;28.79;99266.91;4482345;28;20041;-48
2024/03/02 00:04:53;;;;;;;1.92;1.73;;;;;;;21.18;28.48;99270.59;4481835;28;20037;-49
2024/03/02 00:07:03;;;;;;;1.88;1.70;;;;;;;21.17;28.75;99268.94;4480178;28;20049;-48
2024/03/02 00:09:14;;;;;;;1.67;1.50;;;;;;;21.19;29.27;99269.38;4473161;28;20066;-48
2024/03/02 00:11:25;;;;;;;1.70;1.60;;;;;;;21.18;29.21;99276.34;4480612;28;20066;-48
2024/03/02 00:13:37;;;;;;;2.00;1.80;;;;;;;21.18;29.12;99269.78;4481435;28;20110;-48
2024/03/02 00:15:55;;;;;;;2.42;1.90;;;;;;;21.18;29.04;99272.63;4482342;28;20086;-49
2024/03/02 00:18:06;;;;;;;1.92;1.73;;;;;;;21.14;29.11;99261.13;4481323;28;20034;-48
2024/03/02 00:20:21;;;;;;;1.95;1.75;;;;;;;21.18;28.96;99259.13;4481859;28;20289;-48
2024/03/02 00:22:31;;;;;;;1.90;1.70;;;;;;;21.17;29.17;99251.72;4481290;28;20043;-50
2024/03/02 00:24:42;;;;;;;1.98;1.80;;;;;;;21.17;29.09;99251.72;4479652;28;20030;-48
2024/03/02 00:26:53;;;;;;;2.00;1.77;;;;;;;21.16;29.17;99238.59;4480266;28;20125;-48
2024/03/02 00:29:03;;;;;;;1.98;1.75;;;;;;;21.17;29.47;99240.25;4481107;28;20045;-49
2024/03/02 00:31:14;;;;;;;2.55;2.03;;;;;;;21.16;29.69;99250.09;4480955;28;20070;-48
2024/03/02 00:33:29;;;;;;;2.30;2.00;;;;;;;21.16;29.65;99238.59;4482195;28;20117;-48
2024/03/02 00:35:40;;;;;;;2.17;1.80;;;;;;;21.17;29.32;99239.44;4480850;28;20048;-49
2024/03/02 00:37:51;;;;;;;2.03;1.83;;;;;;;21.16;29.41;99226.31;4481747;28;20038;-49
2024/03/02 00:40:01;;;;;;;2.05;1.85;;;;;;;21.16;29.38;99226.31;4480598;28;20070;-48
2024/03/02 00:42:11;;;;;;;2.25;1.95;;;;;;;21.14;29.35;99220.97;4481445;28;20042;-48
2024/03/02 00:44:26;;;;;;;2.42;1.92;;;;;;;21.14;29.26;99223.84;4465218;28;20039;-49
2024/03/02 00:46:40;;;;;;;1.85;1.70;;;;;;;21.16;29.19;99232.03;4480534;28;20035;-48
2024/03/02 00:48:55;;;;;;;2.78;1.80;;;;;;;21.15;29.10;99227.53;4480839;28;20043;-50
2024/03/02 00:51:06;;;;;;;2.40;2.05;;;;;;;21.15;29.09;99239.00;4479875;28;20031;-48
2024/03/02 00:53:20;;;;;;;2.28;1.88;;;;;;;21.15;29.17;99234.09;4481735;28;20048;-48
2024/03/02 00:55:31;;;;;;;1.90;1.70;;;;;;;21.15;29.13;99236.97;4480013;28;20110;-49
2024/03/02 00:57:41;;;;;;;1.92;1.73;;;;;;;21.14;28.91;99241.06;4481587;28;20547;-48
2024/03/02 00:59:52;;;;;;;2.22;2.00;;;;;;;21.14;28.85;99231.63;4481023;28;20062;-51
2024/03/02 01:02:02;;;;;;;2.15;1.90;;;;;;;21.14;28.83;99231.63;4480307;28;20039;-48
2024/03/02 01:04:14;;;;;;;2.17;1.90;;;;;;;21.14;29.27;99238.19;4480575;28;20351;-49
2024/03/02 01:06:24;;;;;;;2.10;1.90;;;;;;;21.13;29.18;99229.97;4481366;28;20057;-49
2024/03/02 01:08:35;;;;;;;2.60;1.90;;;;;;;21.13;28.96;99239.41;4480743;28;20061;-48
2024/03/02 01:10:45;;;;;;;2.22;2.00;;;;;;;21.13;28.80;99236.56;4480600;28;20049;-49
2024/03/02 01:12:56;;;;;;;2.03;1.80;;;;;;;21.12;29.17;99234.88;4479220;28;20041;-48
2024/03/02 01:15:07;;;;;;;2.10;1.90;;;;;;;21.12;29.30;99234.88;4480803;28;20038;-49
2024/03/02 01:17:18;;;;;;;2.00;1.80;;;;;;;21.13;29.46;99227.94;4462095;28;20027;-48
2024/03/02 01:19:28;;;;;;;2.30;1.92;;;;;;;21.13;29.12;99232.84;4480604;28;20043;-48
2024/03/02 01:21:39;;;;;;;2.00;1.80;;;;;;;21.12;29.38;99229.16;4465923;28;20101;-49
2024/03/02 01:23:49;;;;;;;2.35;2.10;;;;;;;21.12;29.07;99232.03;4479839;28;20927;-49
2024/03/02 01:26:00;;;;;;;2.10;1.90;;;;;;;21.12;29.12;99223.41;4479504;28;20113;-48
2024/03/02 01:28:10;;;;;;;2.50;2.10;;;;;;;21.12;29.21;99225.47;4480928;28;20029;-49
2024/03/02 01:30:21;;;;;;;2.45;2.08;;;;;;;21.12;29.77;99226.28;4471931;28;20039;-48
2024/03/02 01:32:31;;;;;;;2.42;2.20;;;;;;;21.12;29.70;99226.28;4480648;28;20412;-49
2024/03/02 01:34:42;;;;;;;2.42;2.10;;;;;;;21.11;29.21;99221.78;4480337;28;20394;-49
2024/03/02 01:36:52;;;;;;;2.25;2.00;;;;;;;21.11;29.28;99218.91;4462331;28;20050;-48
2024/03/02 01:39:02;;;;;;;2.42;2.13;;;;;;;21.12;29.67;99217.69;4478957;28;20038;-48
2024/03/02 01:41:13;;;;;;;2.20;2.00;;;;;;;21.11;29.35;99218.91;4480480;28;20039;-48
2024/03/02 01:43:23;;;;;;;2.50;2.00;;;;;;;21.11;29.67;99226.69;4479907;28;20066;-49
2024/03/02 01:45:35;;;;;;;2.50;2.30;;;;;;;21.12;29.59;99219.75;4481608;28;20034;-48
2024/03/02 01:47:46;;;;;;;2.08;1.88;;;;;;;21.11;29.44;99218.06;4478826;28;20117;-48
2024/03/02 01:49:57;;;;;;;2.15;1.90;;;;;;;21.11;29.35;99221.78;4480186;28;20553;-49
2024/03/02 01:52:07;;;;;;;2.38;2.00;;;;;;;21.11;29.39;99212.34;4480597;28;20133;-48
2024/03/02 01:54:18;;;;;;;2.20;2.00;;;;;;;21.10;29.52;99216.44;4478850;28;20125;-49
2024/03/02 01:56:28;;;;;;;2.22;2.03;;;;;;;21.10;29.36;99217.28;4480187;28;20035;-50
2024/03/02 01:58:39;;;;;;;2.30;2.10;;;;;;;21.11;29.18;99212.34;4481385;28;20023;-48
2024/03/02 02:00:50;;;;;;;2.30;2.10;;;;;;;21.11;29.52;99201.69;4480712;28;20039;-48
2024/03/02 02:03:00;;;;;;;2.25;1.95;;;;;;;21.10;29.60;99205.81;4480336;28;21392;-49
2024/03/02 02:05:11;;;;;;;2.30;2.10;;;;;;;21.10;29.09;99200.06;4480509;28;20042;-50
2024/03/02 02:07:21;;;;;;;1.98;1.77;;;;;;;21.10;29.88;99194.31;4481486;28;20679;-48
2024/03/02 02:09:32;;;;;;;2.80;2.00;;;;;;;21.10;29.37;99200.06;4479844;28;20416;-48
2024/03/02 02:11:42;;;;;;;2.30;2.10;;;;;;;21.09;29.43;99189.78;4480445;28;20039;-50
2024/03/02 02:13:55;;;;;;;1.98;1.77;;;;;;;21.09;29.56;99177.53;4480588;28;20026;-49
2024/03/02 02:16:07;;;;;;;2.03;1.83;;;;;;;21.10;29.35;99182.03;4479207;28;20042;-49
2024/03/02 02:18:17;;;;;;;2.05;1.83;;;;;;;21.09;29.58;99178.31;4471358;28;20584;-48
2024/03/02 02:20:28;;;;;;;1.95;1.75;;;;;;;21.09;29.25;99171.78;4478408;28;20050;-48
2024/03/02 02:22:38;;;;;;;2.55;2.17;;;;;;;21.09;29.16;99171.78;4479776;28;20022;-48
2024/03/02 02:24:48;;;;;;;2.22;2.03;;;;;;;21.09;29.75;99174.66;4481477;28;20070;-48
2024/03/02 02:26:59;;;;;;;1.90;1.65;;;;;;;21.09;29.68;99169.72;4479209;28;20035;-49
2024/03/02 02:29:09;;;;;;;2.00;1.80;;;;;;;21.09;29.55;99161.09;4464212;28;20815;-49
2024/03/02 02:31:19;;;;;;;2.30;1.80;;;;;;;21.09;29.19;99158.25;4480259;28;20568;-48
2024/03/02 02:33:30;;;;;;;2.25;1.60;;;;;;;21.08;29.36;99153.75;4479833;28;20030;-48
2024/03/02 02:35:40;;;;;;;2.00;1.80;;;;;;;21.09;29.19;99161.09;4479196;28;20043;-49
2024/03/02 02:37:53;;;;;;;2.15;1.67;;;;;;;21.09;29.22;99146.75;4479349;28;22673;-50
2024/03/02 02:40:04;;;;;;;1.90;1.63;;;;;;;21.09;29.13;99145.97;4480152;28;20053;-48
2024/03/02 02:42:15;;;;;;;1.75;1.65;;;;;;;21.08;29.56;99139.41;4480055;28;20663;-48
2024/03/02 02:44:25;;;;;;;1.70;1.60;;;;;;;21.07;29.15;99143.50;4479096;28;23999;-48
2024/03/02 02:46:35;;;;;;;1.63;1.50;;;;;;;21.08;29.05;99138.56;4477474;28;20583;-48
2024/03/02 02:48:46;;;;;;;1.88;1.67;;;;;;;21.07;29.09;99132.03;4478883;28;20046;-50
2024/03/02 02:50:57;;;;;;;1.88;1.60;;;;;;;21.08;28.79;99132.81;4480460;28;20531;-49
2024/03/02 02:53:09;;;;;;;2.13;1.60;;;;;;;21.07;29.20;99126.28;4478928;28;23911;-49
2024/03/02 02:55:20;;;;;;;2.10;1.60;;;;;;;21.07;29.22;99126.28;4479132;28;20856;-48
2024/03/02 02:57:36;;;;;;;1.83;1.42;;;;;;;21.07;28.87;99128.31;4479248;28;20397;-48
2024/03/02 02:59:46;;;;;;;1.83;1.50;;;;;;;21.07;28.79;99128.31;4478684;28;20041;-50
2024/03/02 03:01:57;;;;;;;2.35;1.75;;;;;;;21.07;28.76;99132.03;4480476;28;20053;-48
2024/03/02 03:04:07;;;;;;;1.52;1.40;;;;;;;21.07;29.18;99125.47;4463246;28;20096;-51
2024/03/02 03:06:17;;;;;;;1.98;1.70;;;;;;;21.05;28.87;99123.00;4477509;28;20022;-48
2024/03/02 03:08:28;;;;;;;1.83;1.60;;;;;;;21.05;28.90;99120.13;4480667;28;20468;-49
2024/03/02 03:10:39;;;;;;;1.75;1.60;;;;;;;21.06;28.82;99118.09;4479822;28;20872;-49
2024/03/02 03:12:50;;;;;;;2.10;1.83;;;;;;;21.06;28.81;99123.81;4478642;28;20038;-48
2024/03/02 03:15:00;;;;;;;2.17;1.77;;;;;;;21.06;28.92;99121.75;4478191;28;20043;-48
2024/03/02 03:17:11;;;;;;;2.00;1.70;;;;;;;21.05;29.18;99123.00;4478227;28;20145;-48
2024/03/02 03:19:21;;;;;;;1.90;1.67;;;;;;;21.04;28.65;99126.28;4479578;28;20101;-48
2024/03/02 03:21:32;;;;;;;1.90;1.67;;;;;;;21.04;28.77;99124.19;4478846;28;20538;-48
2024/03/02 03:23:42;;;;;;;1.90;1.67;;;;;;;21.04;28.93;99124.19;4478400;28;20039;-48
2024/03/02 03:25:52;;;;;;;2.05;1.75;;;;;;;21.04;28.65;99127.06;4470498;28;20519;-49
2024/03/02 03:28:03;;;;;;;2.25;1.95;;;;;;;21.04;28.97;99124.19;4477952;28;20043;-48
2024/03/02 03:30:14;;;;;;;2.00;1.80;;;;;;;21.05;28.90;99133.63;4478746;28;20031;-50
2024/03/02 03:32:24;;;;;;;2.25;2.05;;;;;;;21.04;29.15;99132.00;4477923;28;20092;-48
2024/03/02 03:34:35;;;;;;;2.38;2.00;;;;;;;21.04;29.16;99132.81;4481335;28;20046;-49
2024/03/02 03:36:45;;;;;;;2.63;2.20;;;;;;;21.04;29.20;99140.63;4468577;28;20122;-48
2024/03/02 03:38:56;;;;;;;2.53;2.33;;;;;;;21.03;29.23;99139.78;4481787;28;20291;-50
2024/03/02 03:41:06;;;;;;;2.42;2.10;;;;;;;21.04;29.40;99140.63;4473424;28;20524;-48
2024/03/02 03:43:16;;;;;;;2.70;2.30;;;;;;;21.03;29.23;99139.78;4481934;28;20042;-48
2024/03/02 03:45:27;;;;;;;2.40;2.20;;;;;;;21.03;29.05;99136.91;4481240;28;20453;-49
2024/03/02 03:47:37;;;;;;;2.97;2.40;;;;;;;21.03;29.14;99142.66;4482657;28;20031;-48
2024/03/02 03:49:47;;;;;;;2.53;2.33;;;;;;;21.02;29.38;99149.63;4481850;28;20490;-48
2024/03/02 03:51:58;;;;;;;3.17;2.63;;;;;;;21.02;29.06;99146.75;4481374;28;20039;-50
2024/03/02 03:54:11;;;;;;;2.92;2.60;;;;;;;21.03;28.99;99154.13;4482530;28;20109;-49
2024/03/02 03:56:21;;;;;;;2.60;2.38;;;;;;;21.01;29.42;99144.28;4480665;28;20113;-49
2024/03/02 03:58:31;;;;;;;3.05;2.63;;;;;;;21.03;29.40;99154.13;4482583;28;20054;-48
2024/03/02 04:00:42;;;;;;;3.20;2.60;;;;;;;21.02;29.08;99152.50;4481805;28;20416;-48
2024/03/02 04:02:52;;;;;;;3.53;2.80;;;;;;;21.02;29.37;99151.66;4480870;28;20455;-49
2024/03/02 04:05:08;;;;;;;3.55;2.90;;;;;;;21.03;29.66;99156.16;4480018;28;20047;-48
2024/03/02 04:07:18;;;;;;;3.17;2.75;;;;;;;21.03;30.17;99153.28;4481595;28;20027;-49
2024/03/02 04:09:29;;;;;;;3.10;2.80;;;;;;;21.02;30.12;99152.50;4480720;28;25480;-49
2024/03/02 04:11:39;;;;;;;3.45;2.80;;;;;;;21.01;29.99;99153.69;4467482;28;20027;-48
2024/03/02 04:13:50;;;;;;;0.90;0.60;;;;;;;21.21;40.71;99149.28;4482468;28;20026;-48
2024/03/02 04:16:00;;;;;;;0.80;0.50;;;;;;;21.40;41.06;99148.06;4482265;28;20061;-49
2024/03/02 04:18:11;;;;;;;0.93;0.52;;;;;;;21.50;40.89;99150.94;4481065;28;20042;-48
2024/03/02 04:20:21;;;;;;;0.70;0.50;;;;;;;21.60;40.81;99147.28;4473187;28;20163;-48
2024/03/02 04:22:34;;;;;;;0.80;0.50;;;;;;;21.66;40.07;99148.50;4481604;28;20125;-48
2024/03/02 04:24:44;;;;;;;1.33;0.68;;;;;;;21.67;33.72;99138.69;4482161;28;20043;-50
2024/03/02 04:26:54;;;;;;;1.05;0.50;;;;;;;21.75;38.62;99140.34;4482536;28;20023;-49
2024/03/02 04:29:05;;;;;;;0.93;0.50;;;;;;;21.77;35.00;99143.63;4480768;28;22398;-49
2024/03/02 04:31:16;;;;;;;0.40;0.40;;;;;;;21.78;34.20;99139.53;4472994;28;20039;-49
2024/03/02 04:33:26;;;;;;;2.15;0.70;;;;;;;21.81;34.38;99132.97;4481219;28;20045;-49
2024/03/02 04:35:36;;;;;;;0.70;0.70;;;;;;;21.82;31.03;99142.38;4481356;28;20038;-49
2024/03/02 04:37:47;;;;;;;1.20;0.50;;;;;;;21.82;32.17;99140.34;4481219;28;20026;-48
2024/03/02 04:39:57;;;;;;;0.60;0.50;;;;;;;21.83;36.66;99139.13;4467949;28;20027;-49
2024/03/02 04:42:08;;;;;;;0.35;0.35;;;;;;;21.87;33.75;99142.81;4480812;28;20050;-50
2024/03/02 04:44:18;;;;;;;0.43;0.43;;;;;;;21.86;32.83;99141.19;4479141;28;20022;-49
2024/03/02 04:46:28;;;;;;;0.50;0.50;;;;;;;21.88;35.48;99144.44;4479710;28;20035;-49
2024/03/02 04:48:39;;;;;;;0.50;0.50;;;;;;;21.84;29.85;99151.41;4480970;28;20396;-49
2024/03/02 04:50:49;;;;;;;0.55;0.55;;;;;;;21.85;30.95;99151.00;4480113;28;20727;-49
2024/03/02 04:52:59;;;;;;;0.57;0.50;;;;;;;21.90;37.26;99155.50;4481889;28;20577;-48
2024/03/02 04:55:17;;;;;;;0.30;0.30;;;;;;;21.88;34.32;99163.75;4481247;28;20023;-49
2024/03/02 04:57:27;;;;;;;0.40;0.40;;;;;;;21.88;34.56;99166.63;4464843;28;20600;-49
2024/03/02 04:59:38;;;;;;;0.50;0.40;;;;;;;21.91;39.48;99165.78;4481207;28;20031;-48
2024/03/02 05:01:48;;;;;;;0.55;0.43;;;;;;;21.89;37.10;99176.88;4480721;28;23396;-48
2024/03/02 05:03:58;;;;;;;0.50;0.50;;;;;;;21.88;32.08;99169.47;4480878;28;20034;-48
2024/03/02 05:06:09;;;;;;;0.30;0.30;;;;;;;21.86;37.01;99169.91;4480310;28;20043;-49
2024/03/02 05:08:20;;;;;;;0.40;0.40;;;;;;;21.85;38.58;99179.72;4481528;28;20035;-48
2024/03/02 05:10:30;;;;;;;0.30;0.30;;;;;;;21.85;38.91;99184.66;4482350;28;20042;-49
2024/03/02 05:14:54;;;;;;;0.38;0.38;;;;;;;21.83;39.68;99175.63;4480860;28;20031;-48
2024/03/02 05:17:04;;;;;;;0.50;0.50;;;;;;;21.83;39.74;99169.88;4480452;28;20043;-48
2024/03/02 05:19:14;;;;;;;0.40;0.40;;;;;;;21.86;39.28;99180.56;4480431;28;20512;-49
2024/03/02 05:21:25;;;;;;;0.30;0.25;;;;;;;21.85;41.07;99178.94;4480211;28;20082;-49
2024/03/02 05:23:35;;;;;;;0.60;0.47;;;;;;;21.84;40.25;99183.00;4478755;28;20078;-48
2024/03/02 05:25:46;;;;;;;0.35;0.30;;;;;;;21.81;41.09;99190.41;4480877;28;20035;-48
2024/03/02 05:27:56;;;;;;;0.40;0.40;;;;;;;21.82;41.97;99182.59;4480234;28;20383;-49
2024/03/02 05:30:07;;;;;;;0.28;0.28;;;;;;;21.82;41.93;99182.59;4478880;28;20046;-48
2024/03/02 05:32:17;;;;;;;0.40;0.40;;;;;;;21.82;42.13;99180.53;4478820;28;20054;-48
2024/03/02 05:34:28;;;;;;;0.45;0.45;;;;;;;21.77;42.31;99177.28;4479131;28;20109;-48
2024/03/02 05:36:39;;;;;;;0.50;0.50;;;;;;;21.81;41.62;99181.78;4480486;28;20505;-48
2024/03/02 05:38:49;;;;;;;0.40;0.40;;;;;;;21.83;41.02;99175.63;4479154;28;20043;-49
2024/03/02 05:41:00;;;;;;;0.30;0.30;;;;;;;21.84;39.96;99183.84;4471214;28;20074;-49
2024/03/02 05:43:10;;;;;;;0.40;0.40;;;;;;;21.83;41.23;99187.97;4481163;28;20022;-49
2024/03/02 05:45:21;;;;;;;0.40;0.40;;;;;;;21.84;41.53;99194.50;4479531;28;20046;-49
2024/03/02 05:47:32;;;;;;;0.47;0.47;;;;;;;21.84;41.14;99189.59;4480606;28;20066;-48
2024/03/02 05:49:43;;;;;;;0.40;0.40;;;;;;;21.82;40.19;99186.28;4480676;28;20500;-48
2024/03/02 05:51:53;;;;;;;0.50;0.50;;;;;;;21.81;40.29;99184.66;4480237;28;20022;-50
2024/03/02 05:54:04;;;;;;;0.40;0.40;;;;;;;21.83;41.38;99190.81;4480037;28;20045;-48
2024/03/02 05:56:14;;;;;;;0.50;0.50;;;;;;;21.85;41.74;99185.47;4481337;28;20038;-48
2024/03/02 05:58:37;;;;;;;0.40;0.40;;;;;;;21.83;39.60;99192.88;4479307;28;20477;-51
2024/03/02 06:00:48;;;;;;;0.45;0.45;;;;;;;21.85;41.23;99202.69;4478913;28;20054;-48
2024/03/02 06:02:58;;;;;;;0.40;0.40;;;;;;;21.84;41.85;99198.19;4479879;28;20511;-48
2024/03/02 06:05:09;;;;;;;0.40;0.40;;;;;;;21.83;40.82;99193.69;4479447;28;20022;-48
2024/03/02 06:07:19;;;;;;;0.38;0.38;;;;;;;21.83;41.39;99204.34;4479653;28;20046;-48
2024/03/02 06:09:30;;;;;;;0.38;0.30;;;;;;;21.83;41.96;99198.63;4478967;28;20035;-49
2024/03/02 06:11:41;;;;;;;0.30;0.30;;;;;;;21.84;40.59;99200.25;4479610;28;20034;-48
2024/03/02 06:13:51;;;;;;;0.40;0.40;;;;;;;21.82;41.84;99192.03;4479257;28;20038;-47
2024/03/02 06:16:01;;;;;;;0.30;0.30;;;;;;;21.81;41.94;99184.66;4479708;28;20093;-49
2024/03/02 06:18:12;;;;;;;0.40;0.40;;;;;;;21.81;42.20;99187.53;4479012;28;20041;-47
2024/03/02 06:20:22;;;;;;;0.40;0.40;;;;;;;21.80;41.75;99188.75;4480992;28;20042;-48
2024/03/02 06:22:32;;;;;;;0.40;0.40;;;;;;;21.82;42.01;99203.53;4471572;28;20041;-50
2024/03/02 06:24:43;;;;;;;0.47;0.40;;;;;;;21.82;40.98;99203.53;4479258;28;20031;-50
2024/03/02 06:26:53;;;;;;;0.50;0.50;;;;;;;21.82;40.23;99217.88;4479000;28;20062;-48
2024/03/02 06:29:04;;;;;;;0.40;0.40;;;;;;;21.83;41.33;99222.41;4479844;28;20042;-51
2024/03/02 06:31:14;;;;;;;0.45;0.45;;;;;;;21.83;41.58;99222.41;4480503;28;20031;-49
2024/03/02 06:33:24;;;;;;;0.43;0.40;;;;;;;21.82;40.94;99222.81;4478733;28;20063;-47
2024/03/02 06:35:35;;;;;;;0.40;0.40;;;;;;;21.83;40.84;99228.16;4478732;28;20030;-51
2024/03/02 06:37:45;;;;;;;0.40;0.40;;;;;;;21.84;41.77;99229.81;4479774;28;20070;-47
2024/03/02 06:39:56;;;;;;;0.40;0.40;;;;;;;21.83;41.49;99233.91;4480773;28;20486;-48
2024/03/02 06:42:06;;;;;;;0.40;0.40;;;;;;;21.84;41.22;99237.59;4479753;28;20098;-48
2024/03/02 06:44:16;;;;;;;0.45;0.45;;;;;;;21.85;41.31;99236.38;4478969;28;20448;-48
2024/03/02 06:46:27;;;;;;;0.40;0.40;;;;;;;21.80;41.88;99234.69;4479376;28;20035;-47
2024/03/02 06:48:37;;;;;;;0.40;0.40;;;;;;;21.81;42.17;99233.50;4479379;28;20035;-47
2024/03/02 06:50:48;;;;;;;0.40;0.40;;;;;;;21.79;42.15;99226.50;4471071;28;20090;-47
2024/03/02 06:52:58;;;;;;;0.30;0.30;;;;;;;21.78;42.26;99245.81;4479018;28;20045;-48
2024/03/02 06:55:09;;;;;;;0.45;0.45;;;;;;;21.80;41.67;99236.78;4478842;28;20042;-47
2024/03/02 06:57:20;;;;;;;0.75;0.60;;;;;;;21.76;38.36;99245.38;4479510;28;21085;-48
2024/03/02 06:59:31;;;;;;;0.60;0.52;;;;;;;21.78;39.19;99237.19;4479149;28;20034;-47
2024/03/02 07:01:43;;;;;;;0.50;0.50;;;;;;;21.80;39.99;99246.19;4477796;28;20035;-48
2024/03/02 07:03:53;;;;;;;0.50;0.50;;;;;;;21.80;41.01;99251.13;4480181;28;20045;-47
2024/03/02 07:06:04;;;;;;;0.60;0.60;;;;;;;21.81;40.60;99247.84;4470239;28;21234;-47
2024/03/02 07:08:14;;;;;;;0.50;0.50;;;;;;;21.80;36.93;99251.13;4479740;28;20043;-48
2024/03/02 07:10:25;;;;;;;0.50;0.50;;;;;;;21.81;36.53;99244.97;4478721;28;20063;-48
2024/03/02 07:12:35;;;;;;;0.45;0.45;;;;;;;21.81;37.41;99253.59;4478174;28;26689;-49
2024/03/02 07:17:15;;;;;;;0.47;0.43;;;;;;;21.86;40.48;99261.81;4479912;28;21161;-48
2024/03/02 07:19:25;;;;;;;0.30;0.30;;;;;;;21.94;40.17;99260.59;4478490;28;20026;-49
2024/03/02 07:21:35;;;;;;;0.57;0.55;;;;;;;21.96;40.71;99261.00;4477740;28;26300;-48
2024/03/02 07:23:46;;;;;;;0.73;0.50;;;;;;;21.98;40.10;99263.44;4478778;28;20038;-48
2024/03/02 07:25:56;;;;;;;0.65;0.40;;;;;;;22.04;40.04;99256.91;4464157;28;20574;-49
2024/03/02 07:28:07;;;;;;;1.00;0.32;;;;;;;22.08;40.11;99266.34;4479469;28;20401;-48
2024/03/02 07:30:17;;;;;;;0.55;0.43;;;;;;;22.15;40.03;99269.22;4478886;28;20030;-56
2024/03/02 07:32:28;;;;;;;1.00;0.52;;;;;;;22.19;39.62;99267.19;4479172;28;20041;-49
2024/03/02 07:34:38;;;;;;;0.30;0.30;;;;;;;22.13;40.31;99271.69;4464883;28;20071;-48
2024/03/02 07:36:49;;;;;;;0.77;0.50;;;;;;;22.15;40.41;99272.09;4476794;28;20054;-48
2024/03/02 07:38:59;;;;;;;0.40;0.40;;;;;;;22.14;40.38;99263.88;4467953;28;20046;-48
2024/03/02 07:41:11;;;;;;;0.73;0.50;;;;;;;22.18;39.99;99273.34;4469248;28;20070;-48
2024/03/02 07:43:22;;;;;;;0.40;0.40;;;;;;;22.16;40.08;99276.63;4477537;28;20033;-48
2024/03/02 07:45:32;;;;;;;0.40;0.40;;;;;;;22.19;39.93;99274.97;4479715;28;20139;-49
2024/03/02 07:47:42;;;;;;;1.27;0.30;;;;;;;22.17;40.06;99278.25;4477379;28;20153;-49
2024/03/02 07:49:53;;;;;;;1.10;0.40;;;;;;;22.19;39.98;99281.56;4477517;28;20121;-48
2024/03/02 07:52:03;;;;;;;0.50;0.50;;;;;;;22.15;40.32;99280.72;4479034;28;20053;-48
2024/03/02 07:54:14;;;;;;;0.30;0.30;;;;;;;22.12;40.58;99278.66;4470721;28;20074;-48
2024/03/02 07:56:24;;;;;;;0.52;0.47;;;;;;;22.11;40.59;99279.06;4479261;28;20038;-48
2024/03/02 07:58:35;;;;;;;0.95;0.40;;;;;;;22.06;40.22;99277.44;4479126;28;20038;-48
2024/03/02 08:00:46;;;;;;;0.70;0.40;;;;;;;22.03;40.38;99271.66;4478484;28;20047;-52
2024/03/02 08:02:56;;;;;;;0.40;0.32;;;;;;;22.03;40.73;99277.41;4478623;28;20033;-51
2024/03/02 08:05:06;;;;;;;0.60;0.40;;;;;;;22.00;40.42;99270.44;4479218;28;20043;-48
2024/03/02 08:07:17;;;;;;;0.52;0.52;;;;;;;22.02;40.66;99276.59;4478673;28;20042;-48
2024/03/02 08:09:27;;;;;;;0.60;0.43;;;;;;;21.99;40.75;99274.53;4479580;28;20034;-47
2024/03/02 08:11:38;;;;;;;0.43;0.40;;;;;;;21.98;40.68;99275.78;4479244;28;20051;-52
2024/03/02 08:13:49;;;;;;;0.52;0.40;;;;;;;22.00;40.99;99278.25;4477538;28;20066;-51
2024/03/02 08:16:00;;;;;;;0.60;0.40;;;;;;;21.98;40.42;99289.31;4479170;28;20046;-48
2024/03/02 08:18:11;;;;;;;1.10;0.57;;;;;;;22.01;40.98;99291.38;4477044;28;20125;-48
2024/03/02 08:20:21;;;;;;;0.40;0.32;;;;;;;21.98;40.72;99289.31;4478574;28;20035;-47
2024/03/02 08:22:31;;;;;;;1.35;0.40;;;;;;;22.00;40.52;99296.31;4481756;28;20045;-48
2024/03/02 08:24:42;;;;;;;0.30;0.30;;;;;;;21.97;40.56;99302.88;4481397;28;20122;-47
2024/03/02 08:26:52;;;;;;;1.27;0.50;;;;;;;21.96;40.57;99304.09;4481492;28;20041;-49
2024/03/02 08:29:03;;;;;;;1.95;1.55;;;;;;;21.64;34.79;99297.44;4480507;28;20034;-48
2024/03/02 08:31:13;;;;;;;2.83;2.42;;;;;;;21.49;30.89;99298.59;4481717;28;20048;-47
2024/03/02 08:33:24;;;;;;;2.67;2.30;;;;;;;21.41;30.35;99305.53;4466406;28;20035;-46
2024/03/02 08:35:36;;;;;;;3.20;2.40;;;;;;;21.35;30.40;99292.81;4480780;28;21278;-48
2024/03/02 08:37:46;;;;;;;2.53;2.28;;;;;;;21.30;30.80;99301.78;4472228;28;20034;-49
2024/03/02 08:39:56;;;;;;;3.10;2.47;;;;;;;21.25;30.75;99299.31;4481533;28;20477;-49
2024/03/02 08:42:07;;;;;;;3.13;2.50;;;;;;;21.24;30.47;99291.09;4479579;28;20085;-49
2024/03/02 08:44:18;;;;;;;2.83;2.40;;;;;;;21.20;30.80;99288.22;4481354;28;20038;-47
2024/03/02 08:46:28;;;;;;;3.45;2.70;;;;;;;21.19;31.07;99291.50;4481345;28;20043;-48
2024/03/02 08:48:39;;;;;;;3.13;2.38;;;;;;;21.18;30.99;99295.59;4480445;28;20119;-49
2024/03/02 08:50:49;;;;;;;3.58;2.70;;;;;;;21.17;31.25;99299.69;4472950;28;20039;-48
2024/03/02 08:53:00;;;;;;;2.95;2.60;;;;;;;21.17;30.94;99299.69;4481276;28;20086;-48
2024/03/02 08:55:11;;;;;;;3.45;2.65;;;;;;;21.15;31.41;99297.22;4480492;28;20034;-48
2024/03/02 08:57:21;;;;;;;3.30;2.78;;;;;;;21.13;31.34;99290.22;4481504;28;20034;-48
2024/03/02 08:59:32;;;;;;;3.55;2.80;;;;;;;21.15;31.49;99294.38;4480703;28;20046;-48
2024/03/02 09:01:43;;;;;;;3.22;2.70;;;;;;;21.12;32.01;99298.00;4481300;28;20868;-48
2024/03/02 09:03:53;;;;;;;3.50;2.90;;;;;;;21.13;31.96;99305.41;4479710;28;20042;-48
2024/03/02 09:06:04;;;;;;;3.63;3.05;;;;;;;21.12;31.91;99312.34;4466282;28;20563;-47
2024/03/02 09:08:14;;;;;;;3.08;2.53;;;;;;;21.12;31.90;99303.75;4480807;28;20041;-49
2024/03/02 09:10:25;;;;;;;3.28;2.53;;;;;;;21.11;31.83;99304.97;4482396;28;20038;-48
2024/03/02 09:12:36;;;;;;;2.97;2.42;;;;;;;21.11;32.09;99307.84;4479675;28;20043;-49
2024/03/02 09:14:46;;;;;;;2.85;2.55;;;;;;;21.12;32.51;99305.81;4480661;28;20460;-48
2024/03/02 09:16:57;;;;;;;2.60;2.30;;;;;;;21.11;31.96;99309.88;4482624;28;20049;-47
2024/03/02 09:19:07;;;;;;;2.42;2.08;;;;;;;21.10;32.04;99311.97;4480158;28;20038;-48
2024/03/02 09:21:18;;;;;;;2.38;1.90;;;;;;;21.11;31.36;99313.59;4481920;28;20049;-47
2024/03/02 09:23:28;;;;;;;2.10;1.90;;;;;;;21.10;31.60;99309.09;4465308;28;20569;-49
2024/03/02 09:25:39;;;;;;;2.45;1.60;;;;;;;21.10;31.19;99314.81;4480677;28;20905;-49
2024/03/02 09:27:49;;;;;;;2.50;1.75;;;;;;;21.11;31.73;99319.34;4479872;28;20046;-50
2024/03/02 09:29:59;;;;;;;2.05;1.70;;;;;;;21.11;31.65;99316.47;4465152;28;20042;-48
2024/03/02 09:32:13;;;;;;;2.22;1.75;;;;;;;21.10;31.31;99314.81;4479481;28;20442;-48
2024/03/02 09:34:23;;;;;;;2.20;1.70;;;;;;;21.10;31.14;99314.81;4473085;28;20027;-48
2024/03/02 09:36:34;;;;;;;2.03;1.58;;;;;;;21.11;31.34;99315.63;4478987;28;20038;-48
2024/03/02 09:38:44;;;;;;;1.90;1.60;;;;;;;21.10;31.55;99320.56;4480743;28;20030;-52
2024/03/02 09:40:55;;;;;;;2.17;1.60;;;;;;;21.09;31.47;99309.50;4481058;28;20085;-52
2024/03/02 09:43:05;;;;;;;2.03;1.67;;;;;;;21.10;32.01;99305.38;4455090;28;20079;-48
2024/03/02 09:45:16;;;;;;;2.13;1.40;;;;;;;21.09;32.01;99307.44;4473082;28;20039;-48
2024/03/02 09:47:27;;;;;;;1.48;1.30;;;;;;;21.10;31.53;99309.09;4479107;28;20043;-51
2024/03/02 09:49:37;;;;;;;1.50;1.40;;;;;;;21.10;31.45;99303.34;4463450;28;20039;-49
2024/03/02 09:51:48;;;;;;;1.42;1.33;;;;;;;21.10;31.42;99303.34;4479236;28;20063;-48
2024/03/02 09:54:00;;;;;;;2.00;1.50;;;;;;;21.11;31.66;99304.97;4479092;28;20041;-48
2024/03/02 09:56:11;;;;;;;2.03;1.50;;;;;;;21.11;31.93;99304.97;4478763;28;20776;-48
2024/03/02 09:58:21;;;;;;;1.95;1.60;;;;;;;21.11;31.70;99299.25;4479747;28;20050;-48
2024/03/02 10:00:32;;;;;;;1.77;1.40;;;;;;;21.11;31.83;99293.50;4481032;28;20039;-49
2024/03/02 10:02:43;;;;;;;2.10;1.58;;;;;;;21.10;31.85;99297.63;4479713;28;20027;-48
2024/03/02 10:04:53;;;;;;;1.80;1.42;;;;;;;21.11;31.70;99301.28;4471547;28;20182;-47
2024/03/02 10:07:14;;;;;;;1.42;1.20;;;;;;;21.11;31.21;99298.41;4479863;28;20042;-48
2024/03/02 10:09:30;;;;;;;1.55;1.35;;;;;;;21.12;31.57;99289.41;4481131;28;20042;-48
2024/03/02 10:11:40;;;;;;;1.80;1.40;;;;;;;21.12;31.87;99292.28;4479110;28;20098;-48
2024/03/02 10:13:51;;;;;;;1.70;1.17;;;;;;;21.12;31.69;99295.13;4480019;28;20263;-49
2024/03/02 10:16:12;;;;;;;1.70;1.20;;;;;;;21.13;32.05;99284.50;4478567;28;20046;-48
2024/03/02 10:18:28;;;;;;;1.80;1.35;;;;;;;21.13;31.85;99293.09;4481215;28;20045;-48
2024/03/02 10:20:39;;;;;;;1.10;1.00;;;;;;;21.13;32.03;99288.19;4478670;28;20034;-48